Terminal Aerodrome Forecast
Issued by NWS Springfield, MO

Home | Current Version | Previous Version | Text Only | Print | Product List | Glossary On
Versions: 1 2 3 4 5 6 7 8 9 10 11 12 13
000
FTUS43 KSGF 292000 AAA
TAFSGF
TAF AMD
KSGF 292057Z 2921/3018 02016KT P6SM BKN045 BKN060 BKN100
     FM300300 02006KT P6SM FEW200=

USA.gov is the U.S. government's official web portal to all federal, state and local government web resources and services.